sensor_id;sensor_type;location;lat;lon;timestamp;pressure;altitude;pressure_sealevel;temperature;humidity
63019;BME280;49105;46.046;10.760;2023-07-28T00:01:01;95549.75;;;16.38;72.16
63019;BME280;49105;46.046;10.760;2023-07-28T00:03:26;95549.28;;;16.45;71.67
63019;BME280;49105;46.046;10.760;2023-07-28T00:05:52;95545.50;;;16.46;71.51
63019;BME280;49105;46.046;10.760;2023-07-28T00:08:20;95546.41;;;16.32;71.45
63019;BME280;49105;46.046;10.760;2023-07-28T00:10:45;95545.59;;;16.23;71.81
63019;BME280;49105;46.046;10.760;2023-07-28T00:13:17;95543.13;;;16.27;72.10
63019;BME280;49105;46.046;10.760;2023-07-28T00:15:42;95541.84;;;16.24;71.93
63019;BME280;49105;46.046;10.760;2023-07-28T00:18:08;95542.94;;;16.23;72.06
63019;BME280;49105;46.046;10.760;2023-07-28T00:20:33;95543.25;;;16.22;72.08
63019;BME280;49105;46.046;10.760;2023-07-28T00:22:59;95547.66;;;16.18;72.07
63019;BME280;49105;46.046;10.760;2023-07-28T00:25:24;95554.00;;;15.99;72.13
63019;BME280;49105;46.046;10.760;2023-07-28T00:27:50;95542.94;;;15.83;72.46
63019;BME280;49105;46.046;10.760;2023-07-28T00:30:17;95531.53;;;15.92;72.69
63019;BME280;49105;46.046;10.760;2023-07-28T00:32:45;95524.97;;;15.98;72.77
63019;BME280;49105;46.046;10.760;2023-07-28T00:35:17;95529.03;;;15.95;72.70
63019;BME280;49105;46.046;10.760;2023-07-28T00:37:43;95533.25;;;15.96;72.93
63019;BME280;49105;46.046;10.760;2023-07-28T00:40:08;95537.97;;;15.91;72.77
63019;BME280;49105;46.046;10.760;2023-07-28T00:42:34;95540.91;;;15.80;73.14
63019;BME280;49105;46.046;10.760;2023-07-28T00:44:59;95538.13;;;15.85;73.04
63019;BME280;49105;46.046;10.760;2023-07-28T00:47:25;95543.09;;;15.78;73.09
63019;BME280;49105;46.046;10.760;2023-07-28T00:49:56;95544.06;;;15.82;73.32
63019;BME280;49105;46.046;10.760;2023-07-28T00:52:21;95547.38;;;15.88;72.92
63019;BME280;49105;46.046;10.760;2023-07-28T00:54:56;95547.06;;;15.90;72.81
63019;BME280;49105;46.046;10.760;2023-07-28T00:57:25;95543.28;;;15.82;72.87
63019;BME280;49105;46.046;10.760;2023-07-28T00:59:50;95544.06;;;15.82;72.82
63019;BME280;49105;46.046;10.760;2023-07-28T01:02:16;95541.88;;;15.84;72.89
63019;BME280;49105;46.046;10.760;2023-07-28T01:04:41;95535.72;;;15.84;72.97
63019;BME280;49105;46.046;10.760;2023-07-28T01:07:15;95529.56;;;15.75;72.67
63019;BME280;49105;46.046;10.760;2023-07-28T01:09:57;95525.06;;;15.53;73.65
63019;BME280;49105;46.046;10.760;2023-07-28T01:12:26;95517.19;;;15.48;73.50
63019;BME280;49105;46.046;10.760;2023-07-28T01:14:52;95514.22;;;15.49;73.74
63019;BME280;49105;46.046;10.760;2023-07-28T01:17:18;95514.06;;;15.54;73.48
63019;BME280;49105;46.046;10.760;2023-07-28T01:19:44;95518.47;;;15.59;73.49
63019;BME280;49105;46.046;10.760;2023-07-28T01:27:46;95514.72;;;15.51;73.45
63019;BME280;49105;46.046;10.760;2023-07-28T01:30:13;95512.81;;;15.52;73.59
63019;BME280;49105;46.046;10.760;2023-07-28T01:32:38;95509.06;;;15.53;73.61
63019;BME280;49105;46.046;10.760;2023-07-28T01:35:04;95501.53;;;15.55;73.54
63019;BME280;49105;46.046;10.760;2023-07-28T01:37:29;95510.66;;;15.62;73.32
63019;BME280;49105;46.046;10.760;2023-07-28T01:39:55;95510.63;;;15.54;73.32
63019;BME280;49105;46.046;10.760;2023-07-28T01:42:22;95507.81;;;15.59;73.45
63019;BME280;49105;46.046;10.760;2023-07-28T01:44:48;95514.56;;;15.56;73.52
63019;BME280;49105;46.046;10.760;2023-07-28T01:47:13;95519.69;;;15.44;73.60
63019;BME280;49105;46.046;10.760;2023-07-28T01:49:39;95524.34;;;15.38;73.42
63019;BME280;49105;46.046;10.760;2023-07-28T01:52:04;95526.69;;;15.31;73.96
63019;BME280;49105;46.046;10.760;2023-07-28T01:54:30;95526.97;;;15.30;73.75
63019;BME280;49105;46.046;10.760;2023-07-28T01:56:55;95526.84;;;15.35;74.00
63019;BME280;49105;46.046;10.760;2023-07-28T01:59:21;95536.78;;;15.43;73.70
63019;BME280;49105;46.046;10.760;2023-07-28T02:01:47;95527.69;;;15.44;73.79
63019;BME280;49105;46.046;10.760;2023-07-28T02:04:12;95522.63;;;15.43;73.98
63019;BME280;49105;46.046;10.760;2023-07-28T02:06:38;95516.41;;;15.47;74.02
63019;BME280;49105;46.046;10.760;2023-07-28T02:09:03;95523.31;;;15.48;73.92
63019;BME280;49105;46.046;10.760;2023-07-28T02:11:29;95531.00;;;15.50;73.99
63019;BME280;49105;46.046;10.760;2023-07-28T02:13:54;95529.38;;;15.40;73.89
63019;BME280;49105;46.046;10.760;2023-07-28T02:16:20;95533.72;;;15.27;73.80
63019;BME280;49105;46.046;10.760;2023-07-28T02:18:45;95549.34;;;15.20;73.95
63019;BME280;49105;46.046;10.760;2023-07-28T02:21:10;95542.44;;;15.19;74.03
63019;BME280;49105;46.046;10.760;2023-07-28T02:23:36;95537.56;;;15.21;74.06
63019;BME280;49105;46.046;10.760;2023-07-28T02:26:01;95533.66;;;15.19;74.13
63019;BME280;49105;46.046;10.760;2023-07-28T02:28:27;95531.16;;;15.22;74.27
63019;BME280;49105;46.046;10.760;2023-07-28T02:30:53;95532.78;;;15.09;74.11
63019;BME280;49105;46.046;10.760;2023-07-28T02:33:18;95532.84;;;14.96;74.56
63019;BME280;49105;46.046;10.760;2023-07-28T02:35:44;95537.41;;;14.95;74.56
63019;BME280;49105;46.046;10.760;2023-07-28T02:38:09;95533.22;;;15.03;74.71
63019;BME280;49105;46.046;10.760;2023-07-28T02:40:34;95535.59;;;15.04;74.54
63019;BME280;49105;46.046;10.760;2023-07-28T02:43:00;95534.19;;;15.07;74.45
63019;BME280;49105;46.046;10.760;2023-07-28T02:45:25;95543.25;;;15.06;74.36
63019;BME280;49105;46.046;10.760;2023-07-28T02:47:51;95555.66;;;15.02;74.56
63019;BME280;49105;46.046;10.760;2023-07-28T02:50:16;95551.09;;;15.02;74.45
63019;BME280;49105;46.046;10.760;2023-07-28T02:52:42;95559.44;;;15.09;74.65
63019;BME280;49105;46.046;10.760;2023-07-28T02:55:08;95564.69;;;15.14;74.28
63019;BME280;49105;46.046;10.760;2023-07-28T02:57:33;95560.41;;;15.13;74.58
63019;BME280;49105;46.046;10.760;2023-07-28T02:59:59;95564.78;;;15.09;74.33
63019;BME280;49105;46.046;10.760;2023-07-28T03:02:24;95559.56;;;15.04;74.08
63019;BME280;49105;46.046;10.760;2023-07-28T03:04:49;95556.13;;;15.04;74.17
63019;BME280;49105;46.046;10.760;2023-07-28T03:07:15;95552.47;;;15.00;74.29
63019;BME280;49105;46.046;10.760;2023-07-28T03:09:41;95552.16;;;15.01;74.74
63019;BME280;49105;46.046;10.760;2023-07-28T03:12:07;95550.78;;;15.04;74.62
63019;BME280;49105;46.046;10.760;2023-07-28T03:14:32;95553.81;;;14.88;74.27
63019;BME280;49105;46.046;10.760;2023-07-28T03:16:58;95560.75;;;14.76;74.48
63019;BME280;49105;46.046;10.760;2023-07-28T03:19:23;95548.84;;;14.73;74.66
63019;BME280;49105;46.046;10.760;2023-07-28T03:21:48;95544.03;;;14.84;74.86
63019;BME280;49105;46.046;10.760;2023-07-28T03:24:14;95541.94;;;14.95;74.99
63019;BME280;49105;46.046;10.760;2023-07-28T03:26:39;95546.06;;;15.01;74.68
63019;BME280;49105;46.046;10.760;2023-07-28T03:29:05;95550.78;;;15.04;74.74
63019;BME280;49105;46.046;10.760;2023-07-28T03:31:30;95542.66;;;15.09;74.70
63019;BME280;49105;46.046;10.760;2023-07-28T03:33:56;95547.81;;;15.05;74.43
63019;BME280;49105;46.046;10.760;2023-07-28T03:36:21;95555.34;;;15.03;74.35
63019;BME280;49105;46.046;10.760;2023-07-28T03:38:46;95544.31;;;14.96;74.72
63019;BME280;49105;46.046;10.760;2023-07-28T03:41:12;95530.44;;;14.85;74.74
63019;BME280;49105;46.046;10.760;2023-07-28T03:43:40;95536.91;;;14.71;74.50
63019;BME280;49105;46.046;10.760;2023-07-28T03:46:06;95530.72;;;14.61;75.11
63019;BME280;49105;46.046;10.760;2023-07-28T03:48:32;95536.69;;;14.67;75.28
63019;BME280;49105;46.046;10.760;2023-07-28T03:50:57;95541.63;;;14.74;74.85
63019;BME280;49105;46.046;10.760;2023-07-28T03:53:23;95545.06;;;14.74;74.99
63019;BME280;49105;46.046;10.760;2023-07-28T03:55:48;95536.78;;;14.76;74.88
63019;BME280;49105;46.046;10.760;2023-07-28T03:58:13;95537.09;;;14.74;75.12
63019;BME280;49105;46.046;10.760;2023-07-28T04:00:39;95537.88;;;14.75;75.36
63019;BME280;49105;46.046;10.760;2023-07-28T04:03:04;95526.44;;;14.74;75.36
63019;BME280;49105;46.046;10.760;2023-07-28T04:05:30;95522.22;;;14.59;75.42
63019;BME280;49105;46.046;10.760;2023-07-28T04:07:55;95530.13;;;14.51;75.61
63019;BME280;49105;46.046;10.760;2023-07-28T04:10:21;95532.22;;;14.54;75.81
63019;BME280;49105;46.046;10.760;2023-07-28T04:12:47;95537.53;;;14.54;75.38
63019;BME280;49105;46.046;10.760;2023-07-28T04:15:12;95534.69;;;14.50;75.91
63019;BME280;49105;46.046;10.760;2023-07-28T04:17:37;95539.59;;;14.43;75.70
63019;BME280;49105;46.046;10.760;2023-07-28T04:20:03;95544.13;;;14.43;75.39
63019;BME280;49105;46.046;10.760;2023-07-28T04:22:29;95542.66;;;14.50;75.38
63019;BME280;49105;46.046;10.760;2023-07-28T04:24:55;95540.06;;;14.59;75.68
63019;BME280;49105;46.046;10.760;2023-07-28T04:27:20;95529.22;;;14.69;75.49
63019;BME280;49105;46.046;10.760;2023-07-28T04:29:45;95533.56;;;14.65;75.83
63019;BME280;49105;46.046;10.760;2023-07-28T04:32:11;95525.25;;;14.67;75.41
63019;BME280;49105;46.046;10.760;2023-07-28T04:34:36;95532.75;;;14.64;75.36
63019;BME280;49105;46.046;10.760;2023-07-28T04:37:02;95541.06;;;14.63;75.56
63019;BME280;49105;46.046;10.760;2023-07-28T04:39:27;95550.22;;;14.71;75.80
63019;BME280;49105;46.046;10.760;2023-07-28T04:41:53;95542.59;;;14.78;75.58
63019;BME280;49105;46.046;10.760;2023-07-28T04:44:18;95534.66;;;14.86;75.47
63019;BME280;49105;46.046;10.760;2023-07-28T04:46:45;95536.78;;;14.76;75.40
63019;BME280;49105;46.046;10.760;2023-07-28T04:49:13;95539.88;;;14.55;75.31
63019;BME280;49105;46.046;10.760;2023-07-28T04:51:38;95543.63;;;14.54;75.85
63019;BME280;49105;46.046;10.760;2023-07-28T04:54:04;95547.16;;;14.63;75.61
63019;BME280;49105;46.046;10.760;2023-07-28T04:56:29;95534.59;;;14.78;75.69
63019;BME280;49105;46.046;10.760;2023-07-28T04:58:55;95533.44;;;14.93;75.81
63019;BME280;49105;46.046;10.760;2023-07-28T05:01:20;95522.63;;;15.11;75.76
63019;BME280;49105;46.046;10.760;2023-07-28T05:03:46;95526.97;;;15.30;75.40
63019;BME280;49105;46.046;10.760;2023-07-28T05:06:13;95531.50;;;15.29;74.83
63019;BME280;49105;46.046;10.760;2023-07-28T05:08:38;95523.88;;;15.36;74.56
63019;BME280;49105;46.046;10.760;2023-07-28T05:11:03;95526.81;;;15.57;74.81
63019;BME280;49105;46.046;10.760;2023-07-28T05:13:29;95522.81;;;15.69;74.35
63019;BME280;49105;46.046;10.760;2023-07-28T05:15:57;95519.03;;;15.70;73.94
63019;BME280;49105;46.046;10.760;2023-07-28T05:18:29;95540.00;;;15.85;74.22
63019;BME280;49105;46.046;10.760;2023-07-28T05:20:54;95531.88;;;15.99;73.67
63019;BME280;49105;46.046;10.760;2023-07-28T05:23:21;95536.47;;;16.07;73.17
63019;BME280;49105;46.046;10.760;2023-07-28T05:25:52;95535.25;;;16.22;73.36
63019;BME280;49105;46.046;10.760;2023-07-28T05:28:18;95539.50;;;16.31;73.18
63019;BME280;49105;46.046;10.760;2023-07-28T05:30:43;95534.50;;;16.38;72.94
63019;BME280;49105;46.046;10.760;2023-07-28T05:33:09;95542.03;;;16.54;72.87
63019;BME280;49105;46.046;10.760;2023-07-28T05:35:40;95544.59;;;16.59;72.37
63019;BME280;49105;46.046;10.760;2023-07-28T05:38:06;95551.50;;;16.60;72.43
63019;BME280;49105;46.046;10.760;2023-07-28T05:40:40;95556.38;;;16.67;72.25
63019;BME280;49105;46.046;10.760;2023-07-28T05:43:15;95552.31;;;16.86;71.87
63019;BME280;49105;46.046;10.760;2023-07-28T05:45:49;95555.31;;;16.94;71.51
63019;BME280;49105;46.046;10.760;2023-07-28T05:48:15;95562.72;;;16.97;71.40
63019;BME280;49105;46.046;10.760;2023-07-28T05:50:40;95560.38;;;17.04;71.33
63019;BME280;49105;46.046;10.760;2023-07-28T05:53:06;95552.50;;;17.16;71.20
63019;BME280;49105;46.046;10.760;2023-07-28T05:55:40;95545.41;;;17.29;71.24
63019;BME280;49105;46.046;10.760;2023-07-28T05:58:06;95546.19;;;17.29;69.75
63019;BME280;49105;46.046;10.760;2023-07-28T06:00:39;95538.47;;;17.36;70.33
63019;BME280;49105;46.046;10.760;2023-07-28T06:03:11;95538.75;;;17.44;70.06
63019;BME280;49105;46.046;10.760;2023-07-28T06:05:45;95540.47;;;17.57;69.85
63019;BME280;49105;46.046;10.760;2023-07-28T06:08:10;95544.84;;;17.70;69.37
63019;BME280;49105;46.046;10.760;2023-07-28T06:10:36;95540.13;;;17.67;68.29
63019;BME280;49105;46.046;10.760;2023-07-28T06:13:02;95541.69;;;17.68;68.73
63019;BME280;49105;46.046;10.760;2023-07-28T06:15:27;95548.94;;;17.76;68.60
63019;BME280;49105;46.046;10.760;2023-07-28T06:17:53;95540.59;;;17.78;68.70
63019;BME280;49105;46.046;10.760;2023-07-28T06:20:22;95548.84;;;17.94;68.74
63019;BME280;49105;46.046;10.760;2023-07-28T06:22:47;95547.22;;;18.10;68.29
63019;BME280;49105;46.046;10.760;2023-07-28T06:25:13;95549.06;;;18.18;68.14
63019;BME280;49105;46.046;10.760;2023-07-28T06:27:38;95535.50;;;18.23;68.25
63019;BME280;49105;46.046;10.760;2023-07-28T06:30:04;95535.97;;;18.25;67.92
63019;BME280;49105;46.046;10.760;2023-07-28T06:32:39;95541.25;;;18.34;67.51
63019;BME280;49105;46.046;10.760;2023-07-28T06:35:05;95545.97;;;18.37;67.18
63019;BME280;49105;46.046;10.760;2023-07-28T06:37:33;95543.31;;;18.37;66.93
63019;BME280;49105;46.046;10.760;2023-07-28T06:39:58;95539.69;;;18.33;66.29
63019;BME280;49105;46.046;10.760;2023-07-28T06:42:36;95542.13;;;18.47;66.77
63019;BME280;49105;46.046;10.760;2023-07-28T06:45:03;95547.31;;;18.52;66.54
63019;BME280;49105;46.046;10.760;2023-07-28T06:47:29;95543.53;;;18.53;66.58
63019;BME280;49105;46.046;10.760;2023-07-28T06:49:54;95544.44;;;18.57;65.84
63019;BME280;49105;46.046;10.760;2023-07-28T06:52:20;95550.19;;;18.47;65.68
63019;BME280;49105;46.046;10.760;2023-07-28T06:54:45;95536.59;;;18.52;66.24
63019;BME280;49105;46.046;10.760;2023-07-28T06:57:12;95532.88;;;18.65;66.26
63019;BME280;49105;46.046;10.760;2023-07-28T06:59:38;95528.53;;;18.81;65.84
63019;BME280;49105;46.046;10.760;2023-07-28T07:02:03;95523.25;;;18.94;65.94
63019;BME280;49105;46.046;10.760;2023-07-28T07:04:29;95528.84;;;19.01;66.15
63019;BME280;49105;46.046;10.760;2023-07-28T07:06:54;95522.16;;;19.07;65.98
63019;BME280;49105;46.046;10.760;2023-07-28T07:09:20;95517.59;;;19.07;65.94
63019;BME280;49105;46.046;10.760;2023-07-28T07:11:45;95507.56;;;19.17;65.75
63019;BME280;49105;46.046;10.760;2023-07-28T07:14:11;95510.97;;;19.26;65.64
63019;BME280;49105;46.046;10.760;2023-07-28T07:16:36;95509.72;;;19.23;65.61
63019;BME280;49105;46.046;10.760;2023-07-28T07:19:08;95501.88;;;19.18;65.63
63019;BME280;49105;46.046;10.760;2023-07-28T07:21:36;95507.38;;;19.22;65.47
63019;BME280;49105;46.046;10.760;2023-07-28T07:24:03;95513.06;;;19.20;64.62
63019;BME280;49105;46.046;10.760;2023-07-28T07:26:29;95504.13;;;19.28;65.11
63019;BME280;49105;46.046;10.760;2023-07-28T07:28:54;95495.22;;;19.37;64.79
63019;BME280;49105;46.046;10.760;2023-07-28T07:31:20;95493.34;;;19.49;64.91
63019;BME280;49105;46.046;10.760;2023-07-28T07:33:45;95495.75;;;19.63;64.20
63019;BME280;49105;46.046;10.760;2023-07-28T07:36:12;95492.19;;;19.71;63.74
63019;BME280;49105;46.046;10.760;2023-07-28T07:38:38;95499.69;;;19.78;63.47
63019;BME280;49105;46.046;10.760;2023-07-28T07:41:06;95507.50;;;19.83;63.04
63019;BME280;49105;46.046;10.760;2023-07-28T07:43:31;95507.31;;;19.88;62.81
63019;BME280;49105;46.046;10.760;2023-07-28T07:45:59;95504.16;;;19.86;62.14
63019;BME280;49105;46.046;10.760;2023-07-28T07:48:31;95509.41;;;19.82;61.64
63019;BME280;49105;46.046;10.760;2023-07-28T07:51:00;95506.94;;;19.77;61.71
63019;BME280;49105;46.046;10.760;2023-07-28T07:53:25;95509.88;;;19.85;61.79
63019;BME280;49105;46.046;10.760;2023-07-28T07:55:54;95507.63;;;19.99;61.19
63019;BME280;49105;46.046;10.760;2023-07-28T07:58:19;95505.84;;;20.03;61.00
63019;BME280;49105;46.046;10.760;2023-07-28T08:00:47;95499.91;;;20.10;60.07
63019;BME280;49105;46.046;10.760;2023-07-28T08:03:13;95496.22;;;20.26;60.67
63019;BME280;49105;46.046;10.760;2023-07-28T08:05:38;95502.00;;;20.41;60.01
63019;BME280;49105;46.046;10.760;2023-07-28T08:08:04;95504.50;;;20.58;59.22
63019;BME280;49105;46.046;10.760;2023-07-28T08:10:32;95505.56;;;20.69;58.70
63019;BME280;49105;46.046;10.760;2023-07-28T08:12:58;95509.09;;;20.86;59.10
63019;BME280;49105;46.046;10.760;2023-07-28T08:15:25;95507.50;;;20.97;58.99
63019;BME280;49105;46.046;10.760;2023-07-28T08:17:50;95512.06;;;21.09;59.16
63019;BME280;49105;46.046;10.760;2023-07-28T08:20:22;95502.56;;;21.27;59.15
63019;BME280;49105;46.046;10.760;2023-07-28T08:22:47;95503.75;;;21.42;58.66
63019;BME280;49105;46.046;10.760;2023-07-28T08:25:13;95495.59;;;21.54;58.77
63019;BME280;49105;46.046;10.760;2023-07-28T08:27:39;95499.09;;;21.70;58.79
63019;BME280;49105;46.046;10.760;2023-07-28T08:30:05;95493.63;;;21.83;57.69
63019;BME280;49105;46.046;10.760;2023-07-28T08:32:34;95495.28;;;22.03;57.97
63019;BME280;49105;46.046;10.760;2023-07-28T08:34:59;95491.28;;;22.13;56.80
63019;BME280;49105;46.046;10.760;2023-07-28T08:37:25;95476.75;;;22.17;56.75
63019;BME280;49105;46.046;10.760;2023-07-28T08:39:51;95481.91;;;22.22;56.45
63019;BME280;49105;46.046;10.760;2023-07-28T08:42:17;95471.97;;;22.26;56.51
63019;BME280;49105;46.046;10.760;2023-07-28T08:44:42;95475.94;;;22.33;56.51
63019;BME280;49105;46.046;10.760;2023-07-28T08:47:08;95473.41;;;22.40;56.25
63019;BME280;49105;46.046;10.760;2023-07-28T08:49:34;95479.94;;;22.39;56.48
63019;BME280;49105;46.046;10.760;2023-07-28T08:52:02;95473.75;;;22.38;56.21
63019;BME280;49105;46.046;10.760;2023-07-28T08:54:29;95471.56;;;22.44;56.43
63019;BME280;49105;46.046;10.760;2023-07-28T08:56:54;95473.91;;;22.45;56.03
63019;BME280;49105;46.046;10.760;2023-07-28T08:59:24;95471.28;;;22.49;55.85
63019;BME280;49105;46.046;10.760;2023-07-28T09:01:51;95462.91;;;22.54;55.95
63019;BME280;49105;46.046;10.760;2023-07-28T09:04:23;95463.16;;;22.65;56.32
63019;BME280;49105;46.046;10.760;2023-07-28T09:06:50;95464.09;;;22.72;56.14
63019;BME280;49105;46.046;10.760;2023-07-28T09:09:22;95457.69;;;22.81;56.22
63019;BME280;49105;46.046;10.760;2023-07-28T09:11:54;95450.97;;;22.90;56.18
63019;BME280;49105;46.046;10.760;2023-07-28T09:14:29;95436.09;;;23.00;55.97
63019;BME280;49105;46.046;10.760;2023-07-28T09:17:09;95442.16;;;23.13;56.19
63019;BME280;49105;46.046;10.760;2023-07-28T09:19:34;95449.72;;;23.26;56.25
63019;BME280;49105;46.046;10.760;2023-07-28T09:22:01;95454.50;;;23.33;55.59
63019;BME280;49105;46.046;10.760;2023-07-28T09:24:33;95454.91;;;23.35;54.90
63019;BME280;49105;46.046;10.760;2023-07-28T09:27:00;95455.09;;;23.46;54.82
63019;BME280;49105;46.046;10.760;2023-07-28T09:29:26;95452.94;;;23.55;54.21
63019;BME280;49105;46.046;10.760;2023-07-28T09:32:03;95451.84;;;23.60;53.21
63019;BME280;49105;46.046;10.760;2023-07-28T09:34:30;95457.56;;;23.55;53.09
63019;BME280;49105;46.046;10.760;2023-07-28T09:37:00;95464.50;;;23.56;53.63
63019;BME280;49105;46.046;10.760;2023-07-28T09:39:26;95446.69;;;23.51;52.75
63019;BME280;49105;46.046;10.760;2023-07-28T09:41:52;95449.44;;;23.55;52.80
63019;BME280;49105;46.046;10.760;2023-07-28T09:44:18;95438.41;;;23.63;52.66
63019;BME280;49105;46.046;10.760;2023-07-28T09:46:51;95435.78;;;23.67;51.78
63019;BME280;49105;46.046;10.760;2023-07-28T09:49:29;95438.66;;;23.77;51.94
63019;BME280;49105;46.046;10.760;2023-07-28T09:52:05;95430.19;;;23.79;51.86
63019;BME280;49105;46.046;10.760;2023-07-28T09:54:36;95434.09;;;23.82;51.51
63019;BME280;49105;46.046;10.760;2023-07-28T09:57:04;95433.53;;;23.95;50.80
63019;BME280;49105;46.046;10.760;2023-07-28T09:59:35;95427.59;;;24.13;50.40
63019;BME280;49105;46.046;10.760;2023-07-28T10:02:02;95433.97;;;24.24;50.11
63019;BME280;49105;46.046;10.760;2023-07-28T10:04:29;95438.34;;;24.36;50.58
63019;BME280;49105;46.046;10.760;2023-07-28T10:06:55;95440.84;;;24.48;50.92
63019;BME280;49105;46.046;10.760;2023-07-28T10:09:29;95435.78;;;24.43;50.39
63019;BME280;49105;46.046;10.760;2023-07-28T10:11:56;95437.84;;;24.26;49.94
63019;BME280;49105;46.046;10.760;2023-07-28T10:14:27;95432.69;;;24.18;49.29
63019;BME280;49105;46.046;10.760;2023-07-28T10:16:54;95427.19;;;24.11;48.81
63019;BME280;49105;46.046;10.760;2023-07-28T10:19:20;95439.16;;;24.10;49.71
63019;BME280;49105;46.046;10.760;2023-07-28T10:21:46;95424.75;;;24.02;49.58
63019;BME280;49105;46.046;10.760;2023-07-28T10:24:11;95421.00;;;24.10;49.00
63019;BME280;49105;46.046;10.760;2023-07-28T10:26:40;95416.09;;;24.19;49.05
63019;BME280;49105;46.046;10.760;2023-07-28T10:29:14;95414.22;;;24.23;49.37
63019;BME280;49105;46.046;10.760;2023-07-28T10:31:53;95413.16;;;24.32;49.59
63019;BME280;49105;46.046;10.760;2023-07-28T10:34:21;95416.72;;;24.36;49.65
63019;BME280;49105;46.046;10.760;2023-07-28T10:36:56;95423.41;;;24.42;49.99
63019;BME280;49105;46.046;10.760;2023-07-28T10:39:22;95418.38;;;24.40;50.14
63019;BME280;49105;46.046;10.760;2023-07-28T10:44:27;95408.31;;;24.41;50.25
63019;BME280;49105;46.046;10.760;2023-07-28T10:46:53;95411.84;;;24.45;50.40
63019;BME280;49105;46.046;10.760;2023-07-28T10:49:19;95401.91;;;24.53;50.33
63019;BME280;49105;46.046;10.760;2023-07-28T10:51:45;95407.34;;;24.56;50.03
63019;BME280;49105;46.046;10.760;2023-07-28T10:54:11;95409.75;;;24.61;50.05
63019;BME280;49105;46.046;10.760;2023-07-28T10:56:41;95406.22;;;24.57;50.63
63019;BME280;49105;46.046;10.760;2023-07-28T10:59:06;95400.03;;;24.57;51.13
63019;BME280;49105;46.046;10.760;2023-07-28T11:01:36;95397.38;;;24.64;51.22
63019;BME280;49105;46.046;10.760;2023-07-28T11:04:14;95400.94;;;24.71;50.69
63019;BME280;49105;46.046;10.760;2023-07-28T11:06:43;95400.19;;;24.71;50.77
63019;BME280;49105;46.046;10.760;2023-07-28T12:42:28;95353.56;;;25.25;49.83
63019;BME280;49105;46.046;10.760;2023-07-28T12:44:54;95355.88;;;25.23;50.31
63019;BME280;49105;46.046;10.760;2023-07-28T12:47:20;95347.00;;;25.23;50.35
63019;BME280;49105;46.046;10.760;2023-07-28T12:49:45;95345.13;;;25.31;50.20
63019;BME280;49105;46.046;10.760;2023-07-28T12:52:11;95350.94;;;25.33;50.00
63019;BME280;49105;46.046;10.760;2023-07-28T12:54:36;95343.22;;;25.35;49.64
63019;BME280;49105;46.046;10.760;2023-07-28T12:57:03;95342.50;;;25.45;50.04
63019;BME280;49105;46.046;10.760;2023-07-28T12:59:29;95346.09;;;25.56;49.97
63019;BME280;49105;46.046;10.760;2023-07-28T13:01:55;95345.81;;;25.75;50.02
63019;BME280;49105;46.046;10.760;2023-07-28T13:04:20;95344.03;;;25.94;48.46
63019;BME280;49105;46.046;10.760;2023-07-28T13:06:45;95329.03;;;26.14;49.08
63019;BME280;49105;46.046;10.760;2023-07-28T13:09:11;95332.56;;;26.18;48.24
63019;BME280;49105;46.046;10.760;2023-07-28T13:11:37;95324.81;;;26.20;48.43
63019;BME280;49105;46.046;10.760;2023-07-28T13:14:05;95329.84;;;26.18;48.08
63019;BME280;49105;46.046;10.760;2023-07-28T13:16:36;95326.31;;;26.11;48.47
63019;BME280;49105;46.046;10.760;2023-07-28T13:19:04;95326.63;;;25.98;48.43
63019;BME280;49105;46.046;10.760;2023-07-28T13:21:32;95328.16;;;25.92;48.70
63019;BME280;49105;46.046;10.760;2023-07-28T13:23:58;95332.44;;;25.93;48.15
63019;BME280;49105;46.046;10.760;2023-07-28T13:26:24;95332.78;;;25.92;48.28
63019;BME280;49105;46.046;10.760;2023-07-28T13:28:50;95334.31;;;25.86;48.51
63019;BME280;49105;46.046;10.760;2023-07-28T13:31:18;95339.25;;;25.77;48.65
63019;BME280;49105;46.046;10.760;2023-07-28T13:33:44;95335.72;;;25.69;48.88
63019;BME280;49105;46.046;10.760;2023-07-28T13:36:11;95340.31;;;25.61;49.56
63019;BME280;49105;46.046;10.760;2023-07-28T13:38:37;95334.91;;;25.65;49.69
63019;BME280;49105;46.046;10.760;2023-07-28T13:41:06;95334.19;;;25.75;49.82
63019;BME280;49105;46.046;10.760;2023-07-28T13:43:35;95345.13;;;25.82;50.14
63019;BME280;49105;46.046;10.760;2023-07-28T13:46:04;95334.69;;;25.88;50.35
63019;BME280;49105;46.046;10.760;2023-07-28T13:48:33;95337.53;;;26.06;50.13
63019;BME280;49105;46.046;10.760;2023-07-28T13:51:07;95339.06;;;26.03;49.64
63019;BME280;49105;46.046;10.760;2023-07-28T13:53:42;95339.31;;;25.84;49.73
63019;BME280;49105;46.046;10.760;2023-07-28T13:56:16;95335.78;;;25.76;49.22
63019;BME280;49105;46.046;10.760;2023-07-28T13:58:51;95345.34;;;25.63;49.87
63019;BME280;49105;46.046;10.760;2023-07-28T14:01:28;95332.53;;;25.56;49.88
63019;BME280;49105;46.046;10.760;2023-07-28T14:03:54;95333.31;;;25.57;49.65
63019;BME280;49105;46.046;10.760;2023-07-28T14:06:20;95330.56;;;25.53;49.95
63019;BME280;49105;46.046;10.760;2023-07-28T14:08:54;95327.88;;;25.53;50.00
63019;BME280;49105;46.046;10.760;2023-07-28T14:14:25;95310.53;;;25.65;50.46
63019;BME280;49105;46.046;10.760;2023-07-28T14:16:51;95304.03;;;25.77;50.20
63019;BME280;49105;46.046;10.760;2023-07-28T14:19:23;95307.53;;;25.77;50.30
63019;BME280;49105;46.046;10.760;2023-07-28T14:21:55;95293.88;;;25.66;50.81
63019;BME280;49105;46.046;10.760;2023-07-28T14:24:27;95294.25;;;25.61;51.04
63019;BME280;49105;46.046;10.760;2023-07-28T14:26:53;95295.34;;;25.53;51.21
63019;BME280;49105;46.046;10.760;2023-07-28T14:29:18;95300.72;;;25.46;51.56
63019;BME280;49105;46.046;10.760;2023-07-28T14:31:44;95300.19;;;25.30;51.87
63019;BME280;49105;46.046;10.760;2023-07-28T14:34:18;95304.34;;;25.16;52.28